Tuesday: 30′ @ MP and skierg

Monday:  No training.  I flew out to San Jose, and headed straight into the office.  Straight from the office to a business dinner.  Back to hotel around 10pm.

Tuesday:  Early start, in the office at 7am to prep for big meeting.  Then lots of other meetings through the day.  My last meeting finished around 4pm and I decided to sneak out.  I went back to my hotel, threw on my workout clothes and ran over to Evolution Fitness in downtown San Jose.  I bought a day pass and hopped on an erg.  I had to be done, back to the hotel, showered, and in a cab in time for a 6pm business dinner.

Originally, I thought I had time to do a 2×30′ session, but as I was grinding away in the first 30 minutes, I was working out the timing and logistics of getting to my dinner on time and it was clear that I didn’t have that much time.  When I came into the gym, I notice a row of 4 nice new skiergs along a wall.  I decided that a I just finish up the first 30 minutes on the erg, and then give the skierg a try.

So 30 minutes at marathon pace, and then an exploratory session on the skierg.  The workout did not go very well.  It was hard work to sustain even the low end of the marathon pace band and my heart rate was way high.  It might have had something to do with not enough sleep, too much alcohol and way too much stress.  In any event, I was just glad to have had the chance to do a little training.

The skierg was quite an experience.  I just walked up to it, set the damper at 4, the PM to a 10 minute session and started pulling.  I started off at something like 38 SPM, and after a minute found that it was not even remotely sustainable.  I back off to 30 or so, and still redlined about 8 minutes into it.  My pace was incredibly slow, so I have to assume that my technique was crappy.  But it was an impressive workout.  It is full body like a rowing machine, but almost entirely the opposing muscles.  My shoulders, back and neck are all stiff today.

1-24a

Workout Summary - media/20170125-0115190o.csv
--|Total|-Total-|--Avg--|-Avg-|Avg-|-Avg-|-Max-|-Avg
--|Dist-|-Time--|-Pace--|-Pwr-|SPM-|-HR--|-HR--|-DPS
--|07207|30:05.0|02:05.2|178.5|19.2|152.9|160.0|12.5
W-|07210|30:05.0|02:05.2|178.4|19.2|153.0|160.0|12.5
R-|00000|00:00.0|00:00.0|000.0|00.0|000.0|160.0|00.0
Workout Details
#-|SDist|-Split-|-SPace-|-Pwr-|SPM-|AvgHR|MaxHR|DPS-
00|01221|05:00.0|02:02.9|186.7|19.1|139.4|150.0|12.8
01|01210|05:00.0|02:03.9|183.9|19.6|152.5|155.0|12.4
02|01210|05:00.0|02:04.0|183.5|18.9|155.8|157.0|12.8
03|01198|05:00.0|02:05.2|178.4|18.9|157.1|160.0|12.7
04|01179|05:00.0|02:07.2|170.0|19.7|156.7|158.0|12.0
05|01191|05:05.3|02:08.1|168.2|19.1|156.2|159.0|12.3

1-24d

Workout Summary - media/Import_28626041.csv
--|Total|-Total-|--Avg--|-Avg-|Avg-|-Avg-|-Max-|-Avg
--|Dist-|-Time--|-Pace--|-Pwr-|SPM-|-HR--|-HR--|-DPS
--|02351|10:00.0|02:07.6|168.4|30.9|169.2|183.0|07.6
W-|02356|10:00.0|02:07.3|167.8|30.8|169.8|183.0|07.7
R-|00000|00:00.0|00:00.0|000.0|00.0|000.0|183.0|00.0
Workout Details
#-|SDist|-Split-|-SPace-|-Pwr-|SPM-|AvgHR|MaxHR|DPS-
00|00253|01:00.0|01:58.5|187.7|35.2|143.0|159.0|07.2
01|00242|01:00.0|02:04.0|183.8|30.5|159.1|166.0|07.9
02|00237|01:00.0|02:06.5|173.2|31.1|166.6|169.0|07.6
03|00238|01:00.0|02:06.1|175.6|31.4|171.2|174.0|07.6
04|00232|01:00.0|02:09.3|161.5|30.8|172.7|175.0|07.5
05|00231|01:00.0|02:10.0|160.4|28.9|173.4|175.0|08.0
06|00231|01:00.0|02:10.0|159.2|28.2|175.9|178.0|08.2
07|00229|01:00.0|02:11.0|155.3|29.8|177.0|178.0|07.7
08|00228|01:00.0|02:11.4|153.9|29.3|178.0|180.0|07.8
09|00235|01:00.0|02:07.7|167.1|32.7|180.8|183.0|07.2